createdAt,value
2018-02-24T00:00:33.467Z,33.53
2018-02-24T00:05:37.949Z,37.83
2018-02-24T00:10:41.791Z,33.22
2018-02-24T00:15:44.607Z,35.15
2018-02-24T00:20:49.584Z,35.33
2018-02-24T00:25:53.968Z,36.50
2018-02-24T00:30:59.247Z,37.75
2018-02-24T00:36:02.751Z,31.58
2018-02-24T00:41:06.797Z,37.60
2018-02-24T00:46:10.123Z,34.45
2018-02-24T00:51:14.096Z,32.55
2018-02-24T00:56:17.199Z,32.65
2018-02-24T01:01:26.283Z,34.77
2018-02-24T01:06:33.591Z,35.75
2018-02-24T01:11:38.930Z,33.65
2018-02-24T01:16:42.220Z,33.90
2018-02-24T01:21:45.391Z,32.10
2018-02-24T01:26:48.680Z,31.77
2018-02-24T01:31:52.577Z,31.23
2018-02-24T01:36:55.716Z,35.73
2018-02-24T01:42:00.226Z,34.65
2018-02-24T01:47:05.161Z,34.63
2018-02-24T01:52:11.324Z,32.35
2018-02-24T01:57:15.642Z,33.65
2018-02-24T02:02:19.188Z,31.45
2018-02-24T02:07:22.190Z,35.13
2018-02-24T02:12:25.977Z,36.40
2018-02-24T02:17:29.285Z,33.72
2018-02-24T02:22:32.240Z,34.33
2018-02-24T02:27:36.108Z,32.90
2018-02-24T02:32:39.634Z,35.33
2018-02-24T02:37:44.743Z,34.53
2018-02-24T02:42:48.376Z,35.25
2018-02-24T02:47:52.028Z,36.03
2018-02-24T02:52:55.183Z,38.40
2018-02-24T02:58:00.399Z,38.47
2018-02-24T03:03:03.549Z,34.03
2018-02-24T03:08:08.711Z,38.20
2018-02-24T03:13:13.739Z,36.23
2018-02-24T03:18:17.488Z,35.00
2018-02-24T03:23:21.288Z,36.33
2018-02-24T03:28:25.961Z,39.45
2018-02-24T03:33:28.761Z,33.58
2018-02-24T03:38:31.705Z,37.35
2018-02-24T03:43:35.429Z,37.58
2018-02-24T03:48:39.348Z,39.00
2018-02-24T03:53:46.514Z,33.60
2018-02-24T03:58:49.812Z,36.35
2018-02-24T04:03:59.916Z,38.60
2018-02-24T04:09:03.415Z,36.75
2018-02-24T04:14:06.413Z,35.90
2018-02-24T04:19:09.269Z,37.65
2018-02-24T04:24:12.471Z,37.08
2018-02-24T04:29:15.273Z,38.73
2018-02-24T04:34:18.470Z,36.83
2018-02-24T04:39:21.577Z,38.28
2018-02-24T04:44:24.631Z,38.17
2018-02-24T04:49:28.720Z,34.88
2018-02-24T04:54:32.183Z,38.08
2018-02-24T04:59:35.341Z,38.67
2018-02-24T05:04:38.188Z,36.50
2018-02-24T05:09:41.801Z,37.13
2018-02-24T05:14:45.863Z,39.03
2018-02-24T05:19:50.804Z,36.45
2018-02-24T05:24:57.568Z,34.55
2018-02-24T05:30:00.935Z,36.80
2018-02-24T05:35:04.084Z,39.25
2018-02-24T05:40:12.412Z,36.93
2018-02-24T05:45:19.767Z,39.78
2018-02-24T05:50:23.149Z,39.08
2018-02-24T05:55:29.824Z,38.30
2018-02-24T06:00:35.402Z,39.03
2018-02-24T06:05:52.930Z,37.23
2018-02-24T06:10:56.900Z,42.40
2018-02-24T06:16:00.863Z,38.85
2018-02-24T06:21:05.770Z,42.78
2018-02-24T06:26:09.352Z,39.03
2018-02-24T06:31:13.207Z,39.33
2018-02-24T06:36:16.092Z,38.25
2018-02-24T06:41:19.295Z,41.47
2018-02-24T06:46:22.084Z,37.42
2018-02-24T06:51:24.951Z,39.03
2018-02-24T06:56:28.952Z,39.20
2018-02-24T07:01:32.323Z,37.90
2018-02-24T07:06:36.242Z,43.58
2018-02-24T07:11:39.063Z,40.47
2018-02-24T07:16:42.680Z,37.80
2018-02-24T07:21:49.677Z,37.60
2018-02-24T07:26:52.983Z,37.22
2018-02-24T07:31:58.032Z,39.35
2018-02-24T07:37:04.060Z,39.13
2018-02-24T07:42:08.771Z,36.95
2018-02-24T07:47:12.524Z,40.58
2018-02-24T07:52:15.309Z,33.70
2018-02-24T07:57:18.184Z,35.10
2018-02-24T08:02:22.008Z,35.10
2018-02-24T08:07:24.826Z,34.70
2018-02-24T08:12:27.733Z,35.97
2018-02-24T08:17:31.026Z,32.25
2018-02-24T08:22:34.124Z,30.33
2018-02-24T08:27:37.247Z,32.00
2018-02-24T08:32:41.632Z,33.78
2018-02-24T08:37:45.569Z,28.23
2018-02-24T08:42:49.631Z,27.33
2018-02-24T08:47:53.138Z,26.92
2018-02-24T08:52:56.018Z,27.23
2018-02-24T08:57:58.789Z,26.48
2018-02-24T09:03:04.419Z,24.12
2018-02-24T09:08:14.238Z,23.80
2018-02-24T09:13:23.141Z,22.95
2018-02-24T09:18:27.699Z,24.40
2018-02-24T09:23:36.592Z,20.33
2018-02-24T09:43:49.370Z,19.63
2018-02-24T09:48:52.999Z,16.90
2018-02-24T09:53:56.617Z,14.10
2018-02-24T09:58:59.439Z,13.05
2018-02-24T10:04:03.345Z,15.20
2018-02-24T10:09:06.831Z,12.55
2018-02-24T10:14:09.638Z,10.75
2018-02-24T10:19:13.471Z,10.98
2018-02-24T10:24:17.082Z,10.93
2018-02-24T10:29:20.063Z,8.98
2018-02-24T10:34:22.891Z,8.43
2018-02-24T10:39:25.685Z,9.40
2018-02-24T10:44:28.529Z,8.30
2018-02-24T10:49:32.357Z,8.23
2018-02-24T10:54:35.669Z,8.07
2018-02-24T10:59:39.007Z,7.37
2018-02-24T11:04:41.804Z,9.60
2018-02-24T11:09:45.671Z,9.18
2018-02-24T11:14:49.252Z,9.27
2018-02-24T11:19:52.033Z,10.80
2018-02-24T11:24:56.026Z,9.45
2018-02-24T11:30:02.129Z,9.53
2018-02-24T11:35:07.193Z,11.53
2018-02-24T11:40:11.059Z,11.15
2018-02-24T11:45:15.024Z,11.17
2018-02-24T11:50:22.487Z,11.15
2018-02-24T11:55:26.138Z,9.90
2018-02-24T12:00:28.913Z,9.30
2018-02-24T12:05:32.427Z,12.32
2018-02-24T12:10:38.295Z,12.00
2018-02-24T12:15:42.769Z,10.50
2018-02-24T12:20:48.225Z,11.05
2018-02-24T12:26:03.750Z,11.80
2018-02-24T12:31:08.164Z,10.77
2018-02-24T12:36:11.179Z,13.07
2018-02-24T12:41:15.204Z,10.77
2018-02-24T12:46:19.500Z,13.80
2018-02-24T12:51:22.266Z,14.30
2018-02-24T12:56:26.319Z,13.95
2018-02-24T13:01:29.974Z,13.83
2018-02-24T13:06:34.907Z,13.80
2018-02-24T13:11:37.716Z,13.18
2018-02-24T13:16:40.518Z,12.48
2018-02-24T13:21:43.868Z,13.93
2018-02-24T13:26:48.503Z,12.07
2018-02-24T13:31:51.817Z,11.97
2018-02-24T13:36:55.034Z,12.87
2018-02-24T13:41:58.316Z,10.63
2018-02-24T13:47:01.265Z,9.77
2018-02-24T13:52:29.629Z,9.70
2018-02-24T13:57:44.965Z,10.25
2018-02-24T14:02:57.177Z,8.40
2018-02-24T15:49:44.724Z,14.80
2018-02-24T15:54:55.494Z,12.60
2018-02-24T15:59:59.108Z,12.95
2018-02-24T16:05:04.031Z,13.47
2018-02-24T16:10:09.629Z,16.15
2018-02-24T16:15:12.510Z,11.45
2018-02-24T16:20:16.009Z,13.05
2018-02-24T16:25:18.857Z,10.02
2018-02-24T16:30:21.697Z,11.30
2018-02-24T16:35:28.506Z,10.82
2018-02-24T16:40:31.981Z,9.82
2018-02-24T16:45:35.551Z,9.80
2018-02-24T16:50:39.304Z,11.25
2018-02-24T16:55:45.657Z,9.67
2018-02-24T17:00:48.890Z,10.43
2018-02-24T17:05:51.894Z,11.57
2018-02-24T17:10:55.721Z,9.45
2018-02-24T17:15:59.369Z,11.50
2018-02-24T17:26:33.646Z,11.70
2018-02-24T17:31:37.252Z,9.90
2018-02-24T17:36:40.873Z,11.30
2018-02-24T17:41:47.786Z,10.75
2018-02-24T17:46:50.579Z,13.20
2018-02-24T17:51:53.621Z,14.57
2018-02-24T17:56:57.200Z,8.50
2018-02-24T18:02:00.797Z,9.98
2018-02-24T18:07:03.591Z,9.93
2018-02-24T18:12:08.955Z,9.23
2018-02-24T18:17:12.564Z,13.73
2018-02-24T18:22:16.406Z,12.95
2018-02-24T18:27:19.265Z,9.63
2018-02-24T18:32:25.920Z,11.40
2018-02-24T18:37:29.633Z,13.20
2018-02-24T18:42:32.972Z,10.98
2018-02-24T18:47:35.972Z,13.18
2018-02-24T18:52:38.873Z,9.70
2018-02-24T18:57:43.481Z,8.87
2018-02-24T19:02:46.351Z,9.63
2018-02-24T19:07:49.859Z,9.40
2018-02-24T19:12:56.466Z,9.73
2018-02-24T19:17:59.518Z,9.30
2018-02-24T19:23:04.167Z,6.67
2018-02-24T19:28:09.569Z,5.97
2018-02-24T19:33:13.887Z,7.60
2018-02-24T19:38:21.282Z,6.40
2018-02-24T19:43:28.384Z,9.50
2018-02-24T19:48:35.331Z,8.18
2018-02-24T19:53:38.508Z,3.70
2018-02-24T19:58:42.083Z,6.18
2018-02-24T20:03:47.013Z,4.00
2018-02-24T20:08:50.247Z,6.18
2018-02-24T20:13:53.231Z,5.57
2018-02-24T20:18:56.049Z,5.70
2018-02-24T20:23:59.625Z,6.18
2018-02-24T20:34:26.626Z,4.37
2018-02-24T20:39:29.527Z,5.05
2018-02-24T20:44:33.105Z,3.47
2018-02-24T20:49:37.309Z,6.22
2018-02-24T20:54:40.932Z,4.50
2018-02-24T20:59:43.725Z,4.32
2018-02-24T21:04:47.196Z,7.03
2018-02-24T21:09:51.064Z,5.00
2018-02-24T21:14:54.988Z,3.55
2018-02-24T21:19:57.912Z,4.20
2018-02-24T21:25:02.356Z,3.70
2018-02-24T21:30:05.219Z,5.27
2018-02-24T21:35:08.442Z,6.03
2018-02-24T21:40:11.244Z,7.03
2018-02-24T21:45:14.022Z,6.35
2018-02-24T21:50:16.832Z,6.20
2018-02-24T21:55:20.416Z,4.90
2018-02-24T22:00:23.197Z,6.50
2018-02-24T22:05:26.411Z,5.07
2018-02-24T22:10:29.281Z,4.62
2018-02-24T22:15:33.676Z,5.65
2018-02-24T22:20:37.486Z,7.03
2018-02-24T22:25:42.206Z,4.50
2018-02-24T22:30:46.589Z,6.43
2018-02-24T22:35:49.704Z,5.22
2018-02-24T22:40:52.596Z,6.62
2018-02-24T22:45:55.393Z,5.20
2018-02-24T22:50:59.093Z,6.10
2018-02-24T22:56:03.296Z,7.15
2018-02-24T23:01:06.185Z,8.25
2018-02-24T23:06:08.972Z,7.50
2018-02-24T23:11:14.247Z,5.80
2018-02-24T23:16:17.195Z,7.55
2018-02-24T23:21:23.313Z,7.12
2018-02-24T23:26:26.448Z,12.50
2018-02-24T23:31:31.454Z,7.85
2018-02-24T23:36:35.319Z,7.57
2018-02-24T23:41:38.351Z,7.50
2018-02-24T23:46:42.445Z,8.40
2018-02-24T23:51:47.417Z,10.68
2018-02-24T23:56:52.085Z,7.45
